sensor_id;sensor_type;location;lat;lon;timestamp;pressure;altitude;pressure_sealevel;temperature;humidity
66560;BME280;53413;49.878;8.142;2023-02-22T00:01:14;99954.28;;;1.35;100.00
66560;BME280;53413;49.878;8.142;2023-02-22T00:03:58;99948.25;;;1.30;100.00
66560;BME280;53413;49.878;8.142;2023-02-22T00:06:23;99942.22;;;1.28;100.00
66560;BME280;53413;49.878;8.142;2023-02-22T00:08:49;99943.09;;;1.23;100.00
66560;BME280;53413;49.878;8.142;2023-02-22T00:11:16;99938.81;;;1.22;100.00
66560;BME280;53413;49.878;8.142;2023-02-22T00:13:42;99937.94;;;1.23;100.00
66560;BME280;53413;49.878;8.142;2023-02-22T00:16:12;99937.09;;;1.20;100.00
66560;BME280;53413;49.878;8.142;2023-02-22T00:18:38;99927.63;;;1.17;100.00
66560;BME280;53413;49.878;8.142;2023-02-22T00:21:04;99924.19;;;1.12;100.00
66560;BME280;53413;49.878;8.142;2023-02-22T00:23:30;99925.06;;;1.06;100.00
66560;BME280;53413;49.878;8.142;2023-02-22T00:25:57;99925.03;;;1.05;100.00
66560;BME280;53413;49.878;8.142;2023-02-22T00:28:23;99927.63;;;0.99;100.00
66560;BME280;53413;49.878;8.142;2023-02-22T00:30:50;99927.66;;;0.94;100.00
66560;BME280;53413;49.878;8.142;2023-02-22T00:33:16;99932.81;;;0.89;100.00
66560;BME280;53413;49.878;8.142;2023-02-22T00:35:43;99926.78;;;0.87;100.00
66560;BME280;53413;49.878;8.142;2023-02-22T00:38:11;99925.91;;;0.85;100.00
66560;BME280;53413;49.878;8.142;2023-02-22T00:40:36;99925.06;;;0.83;100.00
66560;BME280;53413;49.878;8.142;2023-02-22T00:43:04;99920.75;;;0.82;100.00
66560;BME280;53413;49.878;8.142;2023-02-22T00:45:31;99924.19;;;0.81;100.00
66560;BME280;53413;49.878;8.142;2023-02-22T00:47:58;99920.75;;;0.79;100.00
66560;BME280;53413;49.878;8.142;2023-02-22T00:50:25;99922.47;;;0.75;100.00
66560;BME280;53413;49.878;8.142;2023-02-22T00:52:52;99911.28;;;0.72;100.00
66560;BME280;53413;49.878;8.142;2023-02-22T00:55:22;99910.41;;;0.67;100.00
66560;BME280;53413;49.878;8.142;2023-02-22T00:57:48;99904.41;;;0.61;100.00
66560;BME280;53413;49.878;8.142;2023-02-22T01:00:30;99905.25;;;0.57;100.00
66560;BME280;53413;49.878;8.142;2023-02-22T01:02:56;99908.72;;;0.53;100.00
66560;BME280;53413;49.878;8.142;2023-02-22T01:05:24;99906.09;;;0.49;100.00
66560;BME280;53413;49.878;8.142;2023-02-22T01:07:50;99906.97;;;0.46;100.00
66560;BME280;53413;49.878;8.142;2023-02-22T01:10:17;99905.25;;;0.45;100.00
66560;BME280;53413;49.878;8.142;2023-02-22T01:12:44;99903.53;;;0.44;100.00
66560;BME280;53413;49.878;8.142;2023-02-22T01:15:10;99905.25;;;0.43;100.00
66560;BME280;53413;49.878;8.142;2023-02-22T01:17:37;99905.25;;;0.43;100.00
66560;BME280;53413;49.878;8.142;2023-02-22T01:20:08;99901.81;;;0.43;100.00
66560;BME280;53413;49.878;8.142;2023-02-22T01:22:36;99896.66;;;0.41;100.00
66560;BME280;53413;49.878;8.142;2023-02-22T01:25:03;99893.22;;;0.39;100.00
66560;BME280;53413;49.878;8.142;2023-02-22T01:27:31;99898.38;;;0.41;100.00
66560;BME280;53413;49.878;8.142;2023-02-22T01:29:57;99893.22;;;0.41;100.00
66560;BME280;53413;49.878;8.142;2023-02-22T01:32:22;99892.34;;;0.40;100.00
66560;BME280;53413;49.878;8.142;2023-02-22T01:34:47;99886.34;;;0.38;100.00
66560;BME280;53413;49.878;8.142;2023-02-22T01:37:12;99876.88;;;0.36;100.00
66560;BME280;53413;49.878;8.142;2023-02-22T01:39:38;99877.75;;;0.33;100.00
66560;BME280;53413;49.878;8.142;2023-02-22T01:42:03;99882.88;;;0.32;100.00
66560;BME280;53413;49.878;8.142;2023-02-22T01:44:34;99884.63;;;0.29;100.00
66560;BME280;53413;49.878;8.142;2023-02-22T01:47:02;99874.28;;;0.25;100.00
66560;BME280;53413;49.878;8.142;2023-02-22T01:49:40;99876.88;;;0.22;100.00
66560;BME280;53413;49.878;8.142;2023-02-22T01:52:09;99866.56;;;0.19;100.00
66560;BME280;53413;49.878;8.142;2023-02-22T01:54:43;99871.72;;;0.22;100.00
66560;BME280;53413;49.878;8.142;2023-02-22T01:57:24;99869.13;;;0.20;100.00
66560;BME280;53413;49.878;8.142;2023-02-22T01:59:55;99869.97;;;0.18;100.00
66560;BME280;53413;49.878;8.142;2023-02-22T02:02:23;99872.56;;;0.16;100.00
66560;BME280;53413;49.878;8.142;2023-02-22T02:04:51;99865.69;;;0.15;100.00
66560;BME280;53413;49.878;8.142;2023-02-22T02:07:19;99869.13;;;0.14;100.00
66560;BME280;53413;49.878;8.142;2023-02-22T02:10:08;99869.97;;;0.14;100.00
66560;BME280;53413;49.878;8.142;2023-02-22T02:12:39;99870.84;;;0.12;100.00
66560;BME280;53413;49.878;8.142;2023-02-22T02:17:48;99874.25;;;0.11;100.00
66560;BME280;53413;49.878;8.142;2023-02-22T02:39:28;99844.25;;;0.47;100.00
66560;BME280;53413;49.878;8.142;2023-02-22T02:41:56;99847.69;;;0.54;100.00
66560;BME280;53413;49.878;8.142;2023-02-22T02:44:41;99841.66;;;0.59;100.00
66560;BME280;53413;49.878;8.142;2023-02-22T02:47:14;99835.63;;;0.62;100.00
66560;BME280;53413;49.878;8.142;2023-02-22T02:49:54;99846.81;;;0.64;100.00
66560;BME280;53413;49.878;8.142;2023-02-22T02:52:23;99844.25;;;0.64;100.00
66560;BME280;53413;49.878;8.142;2023-02-22T02:54:50;99834.78;;;0.63;100.00
66560;BME280;53413;49.878;8.142;2023-02-22T02:57:16;99834.78;;;0.61;100.00
66560;BME280;53413;49.878;8.142;2023-02-22T02:59:41;99836.50;;;0.59;100.00
66560;BME280;53413;49.878;8.142;2023-02-22T03:21:33;99821.91;;;0.34;100.00
66560;BME280;53413;49.878;8.142;2023-02-22T03:24:10;99821.91;;;0.29;100.00
66560;BME280;53413;49.878;8.142;2023-02-22T03:26:44;99820.16;;;0.25;100.00
66560;BME280;53413;49.878;8.142;2023-02-22T03:29:13;99824.47;;;0.24;100.00
66560;BME280;53413;49.878;8.142;2023-02-22T03:31:47;99812.44;;;0.20;100.00
66560;BME280;53413;49.878;8.142;2023-02-22T03:34:18;99814.13;;;0.18;100.00
66560;BME280;53413;49.878;8.142;2023-02-22T03:36:58;99812.44;;;0.14;100.00
66560;BME280;53413;49.878;8.142;2023-02-22T03:39:27;99810.72;;;0.13;100.00
66560;BME280;53413;49.878;8.142;2023-02-22T03:41:57;99811.56;;;0.12;100.00
66560;BME280;53413;49.878;8.142;2023-02-22T03:44:28;99808.97;;;0.09;100.00
66560;BME280;53413;49.878;8.142;2023-02-22T03:46:56;99802.97;;;0.05;100.00
66560;BME280;53413;49.878;8.142;2023-02-22T03:49:36;99811.53;;;0.01;100.00
66560;BME280;53413;49.878;8.142;2023-02-22T03:52:06;99809.84;;;-0.02;100.00
66560;BME280;53413;49.878;8.142;2023-02-22T03:54:32;99812.38;;;-0.05;100.00
66560;BME280;53413;49.878;8.142;2023-02-22T03:57:39;99809.84;;;-0.08;100.00
66560;BME280;53413;49.878;8.142;2023-02-22T04:00:10;99808.09;;;-0.10;100.00
66560;BME280;53413;49.878;8.142;2023-02-22T04:02:38;99802.09;;;-0.11;100.00
66560;BME280;53413;49.878;8.142;2023-02-22T04:05:04;99808.09;;;-0.12;100.00
66560;BME280;53413;49.878;8.142;2023-02-22T04:07:29;99804.66;;;-0.14;100.00
66560;BME280;53413;49.878;8.142;2023-02-22T04:09:54;99803.78;;;-0.18;100.00
66560;BME280;53413;49.878;8.142;2023-02-22T04:12:20;99801.19;;;-0.21;100.00
66560;BME280;53413;49.878;8.142;2023-02-22T04:14:45;99809.78;;;-0.22;100.00
66560;BME280;53413;49.878;8.142;2023-02-22T04:17:10;99797.78;;;-0.24;100.00
66560;BME280;53413;49.878;8.142;2023-02-22T04:19:36;99800.34;;;-0.26;100.00
66560;BME280;53413;49.878;8.142;2023-02-22T04:22:01;99796.91;;;-0.25;100.00
66560;BME280;53413;49.878;8.142;2023-02-22T04:24:26;99796.91;;;-0.23;100.00
66560;BME280;53413;49.878;8.142;2023-02-22T04:26:52;99798.63;;;-0.22;100.00
66560;BME280;53413;49.878;8.142;2023-02-22T04:29:19;99793.50;;;-0.22;100.00
66560;BME280;53413;49.878;8.142;2023-02-22T04:31:44;99784.03;;;-0.23;100.00
66560;BME280;53413;49.878;8.142;2023-02-22T04:34:10;99797.78;;;-0.24;100.00
66560;BME280;53413;49.878;8.142;2023-02-22T04:36:35;99792.63;;;-0.26;100.00
66560;BME280;53413;49.878;8.142;2023-02-22T04:39:06;99790.88;;;-0.28;100.00
66560;BME280;53413;49.878;8.142;2023-02-22T04:41:31;99784.00;;;-0.29;100.00
66560;BME280;53413;49.878;8.142;2023-02-22T04:43:58;99783.16;;;-0.32;100.00
66560;BME280;53413;49.878;8.142;2023-02-22T04:46:23;99784.00;;;-0.34;100.00
66560;BME280;53413;49.878;8.142;2023-02-22T04:48:49;99784.00;;;-0.36;100.00
66560;BME280;53413;49.878;8.142;2023-02-22T04:51:14;99773.72;;;-0.37;100.00
66560;BME280;53413;49.878;8.142;2023-02-22T04:53:40;99776.28;;;-0.40;100.00
66560;BME280;53413;49.878;8.142;2023-02-22T04:56:05;99785.69;;;-0.41;100.00
66560;BME280;53413;49.878;8.142;2023-02-22T04:58:30;99781.44;;;-0.40;100.00
66560;BME280;53413;49.878;8.142;2023-02-22T05:00:56;99776.25;;;-0.42;100.00
66560;BME280;53413;49.878;8.142;2023-02-22T05:03:21;99775.41;;;-0.41;100.00
66560;BME280;53413;49.878;8.142;2023-02-22T05:05:46;99771.97;;;-0.40;100.00
66560;BME280;53413;49.878;8.142;2023-02-22T05:08:12;99772.00;;;-0.37;100.00
66560;BME280;53413;49.878;8.142;2023-02-22T05:10:37;99770.28;;;-0.36;100.00
66560;BME280;53413;49.878;8.142;2023-02-22T05:13:03;99772.00;;;-0.37;100.00
66560;BME280;53413;49.878;8.142;2023-02-22T05:15:30;99766.84;;;-0.37;100.00
66560;BME280;53413;49.878;8.142;2023-02-22T05:17:56;99772.00;;;-0.37;100.00
66560;BME280;53413;49.878;8.142;2023-02-22T05:20:28;99766.00;;;-0.36;100.00
66560;BME280;53413;49.878;8.142;2023-02-22T05:22:58;99766.00;;;-0.36;100.00
66560;BME280;53413;49.878;8.142;2023-02-22T05:25:25;99766.84;;;-0.35;100.00
66560;BME280;53413;49.878;8.142;2023-02-22T05:30:16;99763.44;;;-0.33;100.00
66560;BME280;53413;49.878;8.142;2023-02-22T05:32:42;99758.28;;;-0.28;100.00
66560;BME280;53413;49.878;8.142;2023-02-22T05:35:07;99760.84;;;-0.26;100.00
66560;BME280;53413;49.878;8.142;2023-02-22T05:37:33;99767.72;;;-0.25;100.00
66560;BME280;53413;49.878;8.142;2023-02-22T05:39:58;99759.13;;;-0.24;100.00
66560;BME280;53413;49.878;8.142;2023-02-22T05:42:23;99760.00;;;-0.22;100.00
66560;BME280;53413;49.878;8.142;2023-02-22T05:44:49;99762.56;;;-0.21;100.00
66560;BME280;53413;49.878;8.142;2023-02-22T05:47:14;99758.28;;;-0.19;100.00
66560;BME280;53413;49.878;8.142;2023-02-22T05:49:40;99756.59;;;-0.18;100.00
66560;BME280;53413;49.878;8.142;2023-02-22T05:52:05;99756.59;;;-0.17;100.00
66560;BME280;53413;49.878;8.142;2023-02-22T05:54:30;99755.72;;;-0.14;100.00
66560;BME280;53413;49.878;8.142;2023-02-22T05:56:56;99754.00;;;-0.12;100.00
66560;BME280;53413;49.878;8.142;2023-02-22T05:59:21;99751.44;;;-0.09;100.00
66560;BME280;53413;49.878;8.142;2023-02-22T06:01:46;99759.16;;;-0.06;100.00
66560;BME280;53413;49.878;8.142;2023-02-22T06:04:12;99758.31;;;-0.05;100.00
66560;BME280;53413;49.878;8.142;2023-02-22T06:06:37;99753.16;;;-0.03;100.00
66560;BME280;53413;49.878;8.142;2023-02-22T06:09:02;99750.59;;;-0.02;100.00
66560;BME280;53413;49.878;8.142;2023-02-22T06:11:27;99758.34;;;0.00;100.00
66560;BME280;53413;49.878;8.142;2023-02-22T06:13:53;99748.88;;;0.02;100.00
66560;BME280;53413;49.878;8.142;2023-02-22T06:16:20;99757.47;;;0.03;100.00
66560;BME280;53413;49.878;8.142;2023-02-22T06:18:46;99760.03;;;0.07;100.00
66560;BME280;53413;49.878;8.142;2023-02-22T06:21:11;99759.16;;;0.14;100.00
66560;BME280;53413;49.878;8.142;2023-02-22T06:23:37;99771.19;;;0.20;100.00
66560;BME280;53413;49.878;8.142;2023-02-22T06:26:02;99758.31;;;0.25;100.00
66560;BME280;53413;49.878;8.142;2023-02-22T06:28:28;99760.88;;;0.33;100.00
66560;BME280;53413;49.878;8.142;2023-02-22T06:30:53;99765.19;;;0.38;100.00
66560;BME280;53413;49.878;8.142;2023-02-22T06:33:18;99762.63;;;0.44;100.00
66560;BME280;53413;49.878;8.142;2023-02-22T06:35:44;99771.19;;;0.48;100.00
66560;BME280;53413;49.878;8.142;2023-02-22T06:38:09;99770.34;;;0.52;100.00
66560;BME280;53413;49.878;8.142;2023-02-22T06:40:34;99773.75;;;0.57;100.00
66560;BME280;53413;49.878;8.142;2023-02-22T06:43:01;99778.06;;;0.65;100.00
66560;BME280;53413;49.878;8.142;2023-02-22T06:45:27;99775.44;;;0.72;100.00
66560;BME280;53413;49.878;8.142;2023-02-22T06:47:53;99785.78;;;0.77;100.00
66560;BME280;53413;49.878;8.142;2023-02-22T06:50:28;99793.50;;;0.89;100.00
66560;BME280;53413;49.878;8.142;2023-02-22T06:52:53;99792.63;;;1.00;100.00
66560;BME280;53413;49.878;8.142;2023-02-22T06:55:24;99792.53;;;1.18;100.00
66560;BME280;53413;49.878;8.142;2023-02-22T06:57:50;99795.06;;;1.34;100.00
66560;BME280;53413;49.878;8.142;2023-02-22T07:00:17;99797.59;;;1.49;100.00
66560;BME280;53413;49.878;8.142;2023-02-22T07:02:44;99800.13;;;1.62;100.00
66560;BME280;53413;49.878;8.142;2023-02-22T07:05:11;99800.94;;;1.73;100.00
66560;BME280;53413;49.878;8.142;2023-02-22T07:07:37;99802.56;;;1.88;100.00
66560;BME280;53413;49.878;8.142;2023-02-22T07:10:05;99803.28;;;2.09;100.00
66560;BME280;53413;49.878;8.142;2023-02-22T07:12:30;99810.03;;;2.30;100.00
66560;BME280;53413;49.878;8.142;2023-02-22T07:14:56;99817.59;;;2.55;100.00
66560;BME280;53413;49.878;8.142;2023-02-22T07:17:21;99819.97;;;2.80;100.00
66560;BME280;53413;49.878;8.142;2023-02-22T07:19:47;99812.81;;;3.03;100.00
66560;BME280;53413;49.878;8.142;2023-02-22T07:22:12;99813.44;;;3.27;100.00
66560;BME280;53413;49.878;8.142;2023-02-22T07:24:37;99807.13;;;3.48;100.00
66560;BME280;53413;49.878;8.142;2023-02-22T07:27:04;99812.94;;;3.66;100.00
66560;BME280;53413;49.878;8.142;2023-02-22T07:29:30;99810.13;;;3.84;100.00
66560;BME280;53413;49.878;8.142;2023-02-22T07:31:56;99806.38;;;4.04;100.00
66560;BME280;53413;49.878;8.142;2023-02-22T07:34:21;99816.47;;;4.24;100.00
66560;BME280;53413;49.878;8.142;2023-02-22T07:36:47;99802.53;;;4.30;100.00
66560;BME280;53413;49.878;8.142;2023-02-22T07:39:13;99803.22;;;4.40;100.00
66560;BME280;53413;49.878;8.142;2023-02-22T07:41:38;99795.25;;;4.52;100.00
66560;BME280;53413;49.878;8.142;2023-02-22T07:44:04;99795.25;;;4.52;100.00
66560;BME280;53413;49.878;8.142;2023-02-22T07:46:29;99793.44;;;4.57;100.00
66560;BME280;53413;49.878;8.142;2023-02-22T07:48:54;99790.84;;;4.57;100.00
66560;BME280;53413;49.878;8.142;2023-02-22T07:51:20;99790.03;;;4.52;100.00
66560;BME280;53413;49.878;8.142;2023-02-22T07:53:45;99795.41;;;4.43;100.00
66560;BME280;53413;49.878;8.142;2023-02-22T07:56:12;99790.97;;;4.50;100.00
66560;BME280;53413;49.878;8.142;2023-02-22T07:58:37;99790.72;;;4.63;100.00
66560;BME280;53413;49.878;8.142;2023-02-22T08:01:03;99788.78;;;4.76;100.00
66560;BME280;53413;49.878;8.142;2023-02-22T08:03:31;99785.72;;;5.01;100.00
66560;BME280;53413;49.878;8.142;2023-02-22T08:06:00;99788.69;;;5.27;100.00
66560;BME280;53413;49.878;8.142;2023-02-22T08:08:27;99781.19;;;5.55;100.00
66560;BME280;53413;49.878;8.142;2023-02-22T08:10:53;99786.72;;;5.79;100.00
66560;BME280;53413;49.878;8.142;2023-02-22T08:13:20;99783.59;;;6.04;100.00
66560;BME280;53413;49.878;8.142;2023-02-22T08:15:46;99789.69;;;6.40;100.00
66560;BME280;53413;49.878;8.142;2023-02-22T08:18:14;99779.25;;;6.75;100.00
66560;BME280;53413;49.878;8.142;2023-02-22T08:20:41;99782.78;;;7.05;100.00
66560;BME280;53413;49.878;8.142;2023-02-22T08:23:08;99788.56;;;7.17;100.00
66560;BME280;53413;49.878;8.142;2023-02-22T08:25:34;99779.97;;;7.45;100.00
66560;BME280;53413;49.878;8.142;2023-02-22T08:28:02;99790.44;;;7.73;100.00
66560;BME280;53413;49.878;8.142;2023-02-22T08:30:29;99794.44;;;7.85;100.00
66560;BME280;53413;49.878;8.142;2023-02-22T08:32:56;99796.81;;;7.93;100.00
66560;BME280;53413;49.878;8.142;2023-02-22T08:35:22;99799.97;;;8.02;100.00
66560;BME280;53413;49.878;8.142;2023-02-22T08:37:54;99805.53;;;8.20;100.00
66560;BME280;53413;49.878;8.142;2023-02-22T08:40:22;99795.81;;;8.52;100.00
66560;BME280;53413;49.878;8.142;2023-02-22T08:42:48;99798.31;;;9.07;100.00
66560;BME280;53413;49.878;8.142;2023-02-22T08:45:14;99790.09;;;9.42;100.00
66560;BME280;53413;49.878;8.142;2023-02-22T08:47:40;99797.31;;;9.81;100.00
66560;BME280;53413;49.878;8.142;2023-02-22T08:50:07;99785.66;;;9.90;100.00
66560;BME280;53413;49.878;8.142;2023-02-22T08:52:33;99779.31;;;9.96;100.00
66560;BME280;53413;49.878;8.142;2023-02-22T08:54:59;99784.69;;;9.93;100.00
66560;BME280;53413;49.878;8.142;2023-02-22T08:57:25;99783.47;;;10.01;100.00
66560;BME280;53413;49.878;8.142;2023-02-22T08:59:50;99789.28;;;10.10;100.00
66560;BME280;53413;49.878;8.142;2023-02-22T09:02:19;99782.69;;;10.22;100.00
66560;BME280;53413;49.878;8.142;2023-02-22T09:04:46;99785.72;;;10.11;100.00
66560;BME280;53413;49.878;8.142;2023-02-22T09:07:12;99785.81;;;10.30;100.00
66560;BME280;53413;49.878;8.142;2023-02-22T09:09:37;99774.25;;;10.58;100.00
66560;BME280;53413;49.878;8.142;2023-02-22T09:12:03;99780.91;;;10.65;100.00
66560;BME280;53413;49.878;8.142;2023-02-22T09:14:29;99777.97;;;10.52;100.00
66560;BME280;53413;49.878;8.142;2023-02-22T09:16:54;99783.53;;;10.44;100.00
66560;BME280;53413;49.878;8.142;2023-02-22T09:19:20;99780.88;;;10.46;100.00
66560;BME280;53413;49.878;8.142;2023-02-22T09:21:52;99779.59;;;10.55;100.00
66560;BME280;53413;49.878;8.142;2023-02-22T09:24:17;99781.91;;;10.62;100.00
66560;BME280;53413;49.878;8.142;2023-02-22T09:26:45;99771.81;;;10.53;100.00
66560;BME280;53413;49.878;8.142;2023-02-22T09:29:11;99780.97;;;10.43;100.00
66560;BME280;53413;49.878;8.142;2023-02-22T09:31:38;99781.44;;;10.53;100.00
66560;BME280;53413;49.878;8.142;2023-02-22T09:34:04;99781.88;;;10.64;100.00
66560;BME280;53413;49.878;8.142;2023-02-22T09:36:40;99776.66;;;10.62;100.00
66560;BME280;53413;49.878;8.142;2023-02-22T09:39:06;99774.97;;;10.61;100.00
66560;BME280;53413;49.878;8.142;2023-02-22T09:46:51;99766.25;;;10.82;100.00
66560;BME280;53413;49.878;8.142;2023-02-22T09:49:26;99760.88;;;10.85;100.00
66560;BME280;53413;49.878;8.142;2023-02-22T09:52:15;99754.25;;;10.97;100.00
66560;BME280;53413;49.878;8.142;2023-02-22T09:54:43;99751.19;;;10.87;100.00
66560;BME280;53413;49.878;8.142;2023-02-22T09:57:17;99756.66;;;11.01;100.00
66560;BME280;53413;49.878;8.142;2023-02-22T10:02:37;99751.66;;;11.73;100.00
66560;BME280;53413;49.878;8.142;2023-02-22T10:05:12;99745.84;;;12.05;100.00
66560;BME280;53413;49.878;8.142;2023-02-22T10:07:47;99752.56;;;12.28;100.00
66560;BME280;53413;49.878;8.142;2023-02-22T10:10:20;99740.38;;;12.44;100.00
66560;BME280;53413;49.878;8.142;2023-02-22T10:23:35;99737.03;;;14.38;93.38
66560;BME280;53413;49.878;8.142;2023-02-22T10:26:19;99738.84;;;14.21;92.65
66560;BME280;53413;49.878;8.142;2023-02-22T10:29:00;99739.22;;;14.15;92.40
66560;BME280;53413;49.878;8.142;2023-02-22T10:31:32;99737.72;;;14.25;91.75
66560;BME280;53413;49.878;8.142;2023-02-22T10:34:03;99735.19;;;14.24;90.67
66560;BME280;53413;49.878;8.142;2023-02-22T10:36:30;99732.00;;;14.03;90.87
66560;BME280;53413;49.878;8.142;2023-02-22T10:38:59;99730.47;;;13.98;91.75
66560;BME280;53413;49.878;8.142;2023-02-22T10:41:32;99729.63;;;13.98;91.29
66560;BME280;53413;49.878;8.142;2023-02-22T10:44:00;99722.25;;;13.89;91.64
66560;BME280;53413;49.878;8.142;2023-02-22T10:46:27;99730.34;;;13.69;92.32
66560;BME280;53413;49.878;8.142;2023-02-22T10:48:56;99723.38;;;13.52;92.93
66560;BME280;53413;49.878;8.142;2023-02-22T10:51:24;99721.34;;;13.42;94.49
66560;BME280;53413;49.878;8.142;2023-02-22T10:56:46;99721.47;;;13.38;94.97
66560;BME280;53413;49.878;8.142;2023-02-22T10:59:29;99719.09;;;13.34;95.16
66560;BME280;53413;49.878;8.142;2023-02-22T11:01:57;99711.81;;;13.39;95.29
66560;BME280;53413;49.878;8.142;2023-02-22T11:04:23;99720.75;;;13.52;94.83
66560;BME280;53413;49.878;8.142;2023-02-22T11:07:15;99716.75;;;13.45;94.89
66560;BME280;53413;49.878;8.142;2023-02-22T11:10:06;99716.91;;;13.42;95.06
66560;BME280;53413;49.878;8.142;2023-02-22T11:12:36;99718.69;;;13.58;95.15
66560;BME280;53413;49.878;8.142;2023-02-22T11:17:48;99709.72;;;14.08;92.91
66560;BME280;53413;49.878;8.142;2023-02-22T11:20:26;99702.53;;;14.26;91.55
66560;BME280;53413;49.878;8.142;2023-02-22T11:22:54;99700.00;;;14.25;91.15
66560;BME280;53413;49.878;8.142;2023-02-22T11:25:25;99698.31;;;14.38;90.14
66560;BME280;53413;49.878;8.142;2023-02-22T11:27:52;99697.59;;;14.36;89.94
66560;BME280;53413;49.878;8.142;2023-02-22T11:32:53;99688.66;;;14.08;90.53
66560;BME280;53413;49.878;8.142;2023-02-22T11:37:51;99681.50;;;14.10;90.34
66560;BME280;53413;49.878;8.142;2023-02-22T11:40:19;99674.16;;;14.01;89.75
66560;BME280;53413;49.878;8.142;2023-02-22T11:43:06;99680.84;;;13.91;91.29
66560;BME280;53413;49.878;8.142;2023-02-22T11:45:37;99675.19;;;13.82;92.32
66560;BME280;53413;49.878;8.142;2023-02-22T11:48:05;99672.41;;;13.69;92.69
66560;BME280;53413;49.878;8.142;2023-02-22T11:56:09;99658.91;;;13.60;93.51
66560;BME280;53413;49.878;8.142;2023-02-22T12:01:07;99659.31;;;13.68;94.20
66560;BME280;53413;49.878;8.142;2023-02-22T12:09:16;99655.44;;;13.43;96.39
66560;BME280;53413;49.878;8.142;2023-02-22T12:14:29;99651.72;;;13.47;96.28
66560;BME280;53413;49.878;8.142;2023-02-22T12:19:48;99649.41;;;13.41;97.01
66560;BME280;53413;49.878;8.142;2023-02-22T12:22:25;99650.00;;;13.46;97.31
66560;BME280;53413;49.878;8.142;2023-02-22T12:24:53;99655.78;;;13.53;97.43
66560;BME280;53413;49.878;8.142;2023-02-22T12:27:27;99648.38;;;13.60;96.89
66560;BME280;53413;49.878;8.142;2023-02-22T12:30:03;99650.22;;;13.74;96.38
66560;BME280;53413;49.878;8.142;2023-02-22T12:32:39;99648.31;;;13.92;95.51
66560;BME280;53413;49.878;8.142;2023-02-22T12:35:15;99641.78;;;13.99;94.88
66560;BME280;53413;49.878;8.142;2023-02-22T12:37:58;99635.38;;;14.03;94.01
66560;BME280;53413;49.878;8.142;2023-02-22T12:45:41;99626.63;;;14.47;91.65
66560;BME280;53413;49.878;8.142;2023-02-22T12:48:19;99625.00;;;14.45;91.61
66560;BME280;53413;49.878;8.142;2023-02-22T12:50:48;99622.94;;;14.65;91.07
66560;BME280;53413;49.878;8.142;2023-02-22T12:53:37;99626.34;;;14.67;89.89
66560;BME280;53413;49.878;8.142;2023-02-22T12:56:25;99617.84;;;14.61;90.16
66560;BME280;53413;49.878;8.142;2023-02-22T12:59:31;99616.72;;;14.51;89.86
66560;BME280;53413;49.878;8.142;2023-02-22T13:02:08;99623.28;;;14.29;90.46
66560;BME280;53413;49.878;8.142;2023-02-22T13:04:36;99619.53;;;14.19;90.46
66560;BME280;53413;49.878;8.142;2023-02-22T13:07:20;99625.91;;;14.15;91.03
66560;BME280;53413;49.878;8.142;2023-02-22T13:12:35;99626.56;;;14.19;91.48
66560;BME280;53413;49.878;8.142;2023-02-22T13:15:26;99623.97;;;14.33;90.85
66560;BME280;53413;49.878;8.142;2023-02-22T13:23:55;99617.38;;;14.55;90.50
66560;BME280;53413;49.878;8.142;2023-02-22T13:27:00;99602.78;;;14.49;90.58
66560;BME280;53413;49.878;8.142;2023-02-22T13:29:37;99604.75;;;14.45;90.49
66560;BME280;53413;49.878;8.142;2023-02-22T13:35:01;99597.00;;;14.28;91.87
66560;BME280;53413;49.878;8.142;2023-02-22T13:43:26;99587.91;;;14.19;92.74
66560;BME280;53413;49.878;8.142;2023-02-22T13:49:14;99584.03;;;14.54;91.91
66560;BME280;53413;49.878;8.142;2023-02-22T13:51:50;99575.75;;;14.60;90.95
66560;BME280;53413;49.878;8.142;2023-02-22T13:56:44;99581.59;;;14.51;90.58
66560;BME280;53413;49.878;8.142;2023-02-22T14:01:55;99583.31;;;14.37;91.86
66560;BME280;53413;49.878;8.142;2023-02-22T14:07:00;99587.63;;;14.24;92.12
66560;BME280;53413;49.878;8.142;2023-02-22T14:17:35;99582.13;;;13.98;93.33
66560;BME280;53413;49.878;8.142;2023-02-22T14:22:49;99578.41;;;13.86;94.25
66560;BME280;53413;49.878;8.142;2023-02-22T14:25:49;99578.50;;;13.84;94.45
66560;BME280;53413;49.878;8.142;2023-02-22T14:28:37;99575.72;;;13.72;94.37
66560;BME280;53413;49.878;8.142;2023-02-22T14:38:59;99577.00;;;13.18;99.33
66560;BME280;53413;49.878;8.142;2023-02-22T14:41:29;99572.50;;;13.20;99.87
66560;BME280;53413;49.878;8.142;2023-02-22T14:43:56;99576.06;;;13.19;100.00
66560;BME280;53413;49.878;8.142;2023-02-22T14:46:25;99567.50;;;13.15;100.00
66560;BME280;53413;49.878;8.142;2023-02-22T14:48:57;99568.09;;;13.04;100.00
66560;BME280;53413;49.878;8.142;2023-02-22T14:51:26;99566.50;;;13.02;100.00
66560;BME280;53413;49.878;8.142;2023-02-22T14:54:01;99568.69;;;12.93;100.00
66560;BME280;53413;49.878;8.142;2023-02-22T14:56:38;99566.50;;;12.86;100.00
66560;BME280;53413;49.878;8.142;2023-02-22T14:59:18;99562.59;;;12.77;100.00
66560;BME280;53413;49.878;8.142;2023-02-22T15:01:44;99566.41;;;12.71;100.00
66560;BME280;53413;49.878;8.142;2023-02-22T15:04:16;99564.59;;;12.72;100.00
66560;BME280;53413;49.878;8.142;2023-02-22T15:06:42;99565.38;;;12.74;100.00
66560;BME280;53413;49.878;8.142;2023-02-22T15:09:20;99560.28;;;12.71;100.00
66560;BME280;53413;49.878;8.142;2023-02-22T15:12:12;99568.34;;;12.68;100.00
66560;BME280;53413;49.878;8.142;2023-02-22T15:14:39;99573.00;;;12.62;100.00
66560;BME280;53413;49.878;8.142;2023-02-22T15:17:22;99569.84;;;12.56;100.00
66560;BME280;53413;49.878;8.142;2023-02-22T15:19:51;99565.91;;;12.47;100.00
66560;BME280;53413;49.878;8.142;2023-02-22T15:22:26;99560.31;;;12.37;100.00
66560;BME280;53413;49.878;8.142;2023-02-22T15:24:59;99565.13;;;12.29;100.00
66560;BME280;53413;49.878;8.142;2023-02-22T15:27:25;99565.50;;;12.21;100.00
66560;BME280;53413;49.878;8.142;2023-02-22T15:29:57;99564.16;;;12.14;100.00
66560;BME280;53413;49.878;8.142;2023-02-22T15:34:51;99561.53;;;11.96;100.00
66560;BME280;53413;49.878;8.142;2023-02-22T15:37:22;99569.78;;;11.89;100.00